createdAt,value
2023-03-27T00:09:35.624Z,3.07
2023-03-27T00:19:37.105Z,3.10
2023-03-27T00:29:38.573Z,3.37
2023-03-27T00:39:40.082Z,3.80
2023-03-27T00:49:42.236Z,3.53
2023-03-27T00:59:45.063Z,3.67
2023-03-27T01:09:46.599Z,3.53
2023-03-27T01:20:18.957Z,4.63
2023-03-27T01:30:29.693Z,4.27
2023-03-27T01:40:52.876Z,4.40
2023-03-27T01:50:59.509Z,2.87
2023-03-27T02:01:02.429Z,2.90
2023-03-27T02:11:04.072Z,1.97
2023-03-27T02:21:05.820Z,2.70
2023-03-27T02:31:37.865Z,2.08
2023-03-27T02:41:51.297Z,2.10
2023-03-27T02:52:20.282Z,1.73
2023-03-27T03:02:26.503Z,1.33
2023-03-27T03:12:28.080Z,1.43
2023-03-27T03:22:29.534Z,1.52
2023-03-27T03:32:31.095Z,0.87
2023-03-27T03:42:32.574Z,1.15
2023-03-27T03:52:34.138Z,1.70
2023-03-27T04:02:35.731Z,0.77
2023-03-27T04:12:37.381Z,0.77
2023-03-27T04:22:39.020Z,0.80
2023-03-27T04:32:40.713Z,1.73
2023-03-27T04:42:42.734Z,0.60
2023-03-27T04:52:44.297Z,1.70
2023-03-27T05:02:47.250Z,1.88
2023-03-27T05:12:50.866Z,1.33
2023-03-27T05:22:54.684Z,1.90
2023-03-27T05:32:56.310Z,2.23
2023-03-27T05:42:59.287Z,2.77
2023-03-27T05:53:03.941Z,3.03
2023-03-27T06:03:05.580Z,3.00
2023-03-27T06:13:09.731Z,3.38
2023-03-27T06:23:11.193Z,4.13
2023-03-27T06:33:12.814Z,4.13
2023-03-27T06:43:15.738Z,4.50
2023-03-27T06:53:26.588Z,4.27
2023-03-27T07:03:29.176Z,4.50
2023-03-27T07:13:30.773Z,3.70
2023-03-27T07:23:32.261Z,3.23
2023-03-27T07:33:33.779Z,2.88
2023-03-27T07:43:35.585Z,3.63
2023-03-27T07:53:37.104Z,3.80
2023-03-27T08:03:39.273Z,3.13
2023-03-27T08:13:40.963Z,3.17
2023-03-27T08:23:42.436Z,9.90
2023-03-27T08:33:43.892Z,3.10
2023-03-27T08:43:45.750Z,2.40
2023-03-27T08:54:19.982Z,1.50
2023-03-27T09:04:48.444Z,1.97
2023-03-27T09:14:58.472Z,1.42
2023-03-27T09:25:04.996Z,2.00
2023-03-27T09:35:06.776Z,1.63
2023-03-27T09:45:12.562Z,1.03
2023-03-27T09:55:25.140Z,1.67
2023-03-27T10:05:26.679Z,1.65
2023-03-27T10:15:37.553Z,1.40
2023-03-27T10:26:00.890Z,1.80
2023-03-27T10:36:04.213Z,0.93
2023-03-27T10:46:11.002Z,2.10
2023-03-27T10:56:33.659Z,1.40
2023-03-27T11:06:40.968Z,1.50
2023-03-27T11:16:47.503Z,1.50
2023-03-27T11:26:55.641Z,0.40
2023-03-27T11:37:38.828Z,0.60
2023-03-27T11:48:22.196Z,0.50
2023-03-27T11:58:29.951Z,0.30
2023-03-27T12:08:59.850Z,0.40
2023-03-27T12:19:21.088Z,0.27
2023-03-27T12:29:41.581Z,0.20
2023-03-27T12:39:52.392Z,0.30
2023-03-27T12:49:59.510Z,0.30
2023-03-27T13:00:02.242Z,0.20
2023-03-27T13:10:42.753Z,0.20
2023-03-27T13:20:47.334Z,0.10
2023-03-27T13:30:56.735Z,0.22
2023-03-27T13:41:36.777Z,0.30
2023-03-27T13:52:02.298Z,0.40
2023-03-27T14:02:32.071Z,0.20
2023-03-27T14:12:51.983Z,0.20
2023-03-27T14:23:01.829Z,0.20
2023-03-27T14:33:08.089Z,0.20
2023-03-27T14:43:11.709Z,0.20
2023-03-27T14:53:22.744Z,0.13
2023-03-27T15:03:27.498Z,0.10
2023-03-27T15:13:34.971Z,0.10
2023-03-27T15:24:05.965Z,0.20
2023-03-27T15:34:24.927Z,0.17
2023-03-27T15:44:31.455Z,0.10
2023-03-27T15:54:35.216Z,0.10
2023-03-27T16:04:39.032Z,0.20
2023-03-27T16:14:43.393Z,0.20
2023-03-27T16:24:46.926Z,0.10
2023-03-27T16:34:48.906Z,0.10
2023-03-27T16:44:50.912Z,0.10
2023-03-27T16:54:53.261Z,0.15
2023-03-27T17:04:54.812Z,0.20
2023-03-27T17:14:56.786Z,0.20
2023-03-27T17:25:00.335Z,0.10
2023-03-27T17:35:01.850Z,0.23
2023-03-27T17:45:06.352Z,0.10
2023-03-27T17:55:10.020Z,0.20
2023-03-27T18:05:11.545Z,0.30
2023-03-27T18:15:14.146Z,0.30
2023-03-27T18:25:15.781Z,0.23
2023-03-27T18:35:19.580Z,0.20
2023-03-27T18:45:21.087Z,0.20
2023-03-27T18:55:22.651Z,0.30
2023-03-27T19:05:24.115Z,0.20
2023-03-27T19:15:25.639Z,0.10
2023-03-27T19:25:27.335Z,0.20
2023-03-27T19:35:28.912Z,0.10
2023-03-27T19:45:30.442Z,0.10
2023-03-27T19:55:31.984Z,0.20
2023-03-27T20:05:33.486Z,0.10
2023-03-27T20:15:35.005Z,0.20
2023-03-27T20:25:36.534Z,0.23
2023-03-27T20:35:41.025Z,0.25
2023-03-27T20:45:43.589Z,0.20
2023-03-27T21:05:48.955Z,0.20
2023-03-27T21:15:50.411Z,0.30
2023-03-27T21:25:51.947Z,0.30
2023-03-27T21:35:53.495Z,0.60
2023-03-27T21:45:55.076Z,0.37
2023-03-27T21:55:57.938Z,0.40
2023-03-27T22:06:11.707Z,0.30
2023-03-27T22:16:16.547Z,0.30
2023-03-27T22:26:22.523Z,0.20
2023-03-27T22:36:24.020Z,0.30
2023-03-27T22:46:25.651Z,0.22
2023-03-27T22:56:27.164Z,0.40
2023-03-27T23:06:28.711Z,0.40
2023-03-27T23:16:30.249Z,0.13
2023-03-27T23:26:31.707Z,0.30
2023-03-27T23:36:33.250Z,0.20
2023-03-27T23:46:34.830Z,0.20
2023-03-27T23:56:36.506Z,0.30
